Clipper Imabari — 3ERD7 — position and weather

sailwx.info

Track history (hours):
 
Tides and Currents Weather Stations Pressure Air Temp Water Temp Dewpoint Dewpoint Depression Visibility Wind Speed Wind Dir Waves Ship Positions

Clipper Imabari

Last reported at 2014-Oct-19 18:32 UTC. Time now 2014-Oct-21 03:46 UTC.
Position N 01°10' E 103°48'.

Length 169 m; draft 9.9 m.

Type: Cargo ship. MMSI: 370016000.

Date/timePositionNaut miles runAvg speedWind from/ knotsBaromVisibWave heightAir tempDewpointWater temp
2014-Oct-19 18:32N 01°10' E 103°48'7 7.7
2014-Oct-19 17:34N 01°15' E 103°54'1 0.9
2014-Oct-19 16:19N 01°16' E 103°54'0 0.0
2014-Oct-19 15:31N 01°16' E 103°54'0 0.0
2014-Oct-19 10:22N 01°16' E 103°54'0 0.1
2014-Oct-19 09:22N 01°16' E 103°54'0 0.1
2014-Oct-19 08:23N 01°16' E 103°54'2 2.5
2014-Oct-19 07:34N 01°14' E 103°53'3 2.6
2014-Oct-19 06:33N 01°14' E 103°56'  
Track history (hours):
 
Tides and Currents Weather Stations Pressure Air Temp Water Temp Dewpoint Dewpoint Depression Visibility Wind Speed Wind Dir Waves Ship Positions

Clipper Imabari

Last reported at 2014-Oct-19 18:32 UTC. Time now 2014-Oct-21 03:46 UTC.
Position N 01°10' E 103°48'.

Length 169 m; draft 9.9 m.

Type: Cargo ship. MMSI: 370016000.

Date/timePositionNaut miles runAvg speedWind from/ knotsBaromVisibWave heightAir tempDewpointWater temp
2014-Oct-19 18:32N 01°10' E 103°48'7 7.7
2014-Oct-19 17:34N 01°15' E 103°54'1 0.9
2014-Oct-19 16:19N 01°16' E 103°54'0 0.0
2014-Oct-19 15:31N 01°16' E 103°54'0 0.0
2014-Oct-19 10:22N 01°16' E 103°54'0 0.1
2014-Oct-19 09:22N 01°16' E 103°54'0 0.1
2014-Oct-19 08:23N 01°16' E 103°54'2 2.5
2014-Oct-19 07:34N 01°14' E 103°53'3 2.6
2014-Oct-19 06:33N 01°14' E 103°56'  

Dump ship's entire track history